Time,TemperatureF,DewpointF,PressureIn,WindDirection,WindDirectionDegrees,WindSpeedMPH,WindSpeedGustMPH,Humidity,HourlyPrecipIn,Conditions,Clouds,dailyrainin,SoftwareType,DateUTC
2013-04-17 00:02:00,44.0,27.0,-100.00,ENE,60,4.0,10.0,50,-99.99,,,-99.99,,2013-04-17 05:02:00,
2013-04-17 00:10:00,43.0,28.0,-100.00,NE,50,3.0,7.0,55,-99.99,,,-99.99,,2013-04-17 05:10:00,
2013-04-17 00:32:00,43.0,28.0,-100.00,NE,50,3.0,7.0,55,-99.99,,,-99.99,,2013-04-17 05:32:00,
2013-04-17 00:43:00,43.0,28.0,-100.00,NE,50,3.0,7.0,55,-99.99,,,-99.99,,2013-04-17 05:43:00,
2013-04-17 00:52:00,43.0,28.0,-100.00,NE,50,3.0,7.0,55,-99.99,,,-99.99,,2013-04-17 05:52:00,
2013-04-17 01:02:00,43.0,28.0,-100.00,NE,50,3.0,7.0,55,-99.99,,,-99.99,,2013-04-17 06:02:00,
2013-04-17 01:12:00,42.0,28.0,-100.00,East,95,4.0,7.0,57,-99.99,,,-99.99,,2013-04-17 06:12:00,
2013-04-17 01:32:00,42.0,28.0,-100.00,East,95,4.0,7.0,57,-99.99,,,-99.99,,2013-04-17 06:32:00,
2013-04-17 01:42:00,42.0,28.0,-100.00,East,95,4.0,7.0,57,-99.99,,,-99.99,,2013-04-17 06:42:00,
2013-04-17 01:52:00,42.0,28.0,-100.00,East,95,4.0,7.0,57,-99.99,,,-99.99,,2013-04-17 06:52:00,
2013-04-17 02:02:00,42.0,28.0,-100.00,East,95,4.0,7.0,57,-99.99,,,-99.99,,2013-04-17 07:02:00,
2013-04-17 02:32:00,42.0,29.0,-100.00,NE,45,2.0,6.0,59,-99.99,,,-99.99,,2013-04-17 07:32:00,
2013-04-17 02:42:00,42.0,29.0,-100.00,NE,45,2.0,6.0,59,-99.99,,,-99.99,,2013-04-17 07:42:00,
2013-04-17 02:52:00,42.0,29.0,-100.00,NE,45,2.0,6.0,59,-99.99,,,-99.99,,2013-04-17 07:52:00,
2013-04-17 03:02:00,42.0,29.0,-100.00,NE,45,2.0,6.0,59,-99.99,,,-99.99,,2013-04-17 08:02:00,
2013-04-17 03:12:00,42.0,29.0,-100.00,NE,45,2.0,6.0,59,-99.99,,,-99.99,,2013-04-17 08:12:00,
2013-04-17 03:33:00,41.0,29.0,-100.00,East,80,3.0,5.0,62,-99.99,,,-99.99,,2013-04-17 08:33:00,
2013-04-17 03:42:00,41.0,29.0,-100.00,East,80,3.0,5.0,62,-99.99,,,-99.99,,2013-04-17 08:42:00,
2013-04-17 03:52:00,41.0,29.0,-100.00,East,80,3.0,5.0,62,-99.99,,,-99.99,,2013-04-17 08:52:00,
2013-04-17 04:02:00,41.0,29.0,-100.00,East,80,3.0,5.0,62,-99.99,,,-99.99,,2013-04-17 09:02:00,
2013-04-17 04:12:00,39.0,30.0,-100.00,ENE,75,3.0,6.0,69,-99.99,,,-99.99,,2013-04-17 09:12:00,
2013-04-17 04:33:00,39.0,30.0,-100.00,ENE,75,3.0,6.0,69,-99.99,,,-99.99,,2013-04-17 09:33:00,
2013-04-17 04:42:00,39.0,30.0,-100.00,ENE,75,3.0,6.0,69,-99.99,,,-99.99,,2013-04-17 09:42:00,
2013-04-17 04:52:00,39.0,30.0,-100.00,ENE,75,3.0,6.0,69,-99.99,,,-99.99,,2013-04-17 09:52:00,
2013-04-17 05:02:00,39.0,30.0,-100.00,ENE,75,3.0,6.0,69,-99.99,,,-99.99,,2013-04-17 10:02:00,
2013-04-17 05:10:00,39.0,30.0,-100.00,East,90,4.0,9.0,71,-99.99,,,-99.99,,2013-04-17 10:10:00,
2013-04-17 05:33:00,39.0,30.0,-100.00,East,90,4.0,9.0,71,-99.99,,,-99.99,,2013-04-17 10:33:00,
2013-04-17 05:43:00,39.0,30.0,-100.00,East,90,4.0,9.0,71,-99.99,,,-99.99,,2013-04-17 10:43:00,
2013-04-17 05:53:00,39.0,30.0,-100.00,East,90,4.0,9.0,71,-99.99,,,-99.99,,2013-04-17 10:53:00,
2013-04-17 06:02:00,39.0,30.0,-100.00,East,90,4.0,9.0,71,-99.99,,,-99.99,,2013-04-17 11:02:00,
2013-04-17 06:12:00,40.0,28.0,-100.00,East,80,12.0,21.0,62,-99.99,,,-99.99,,2013-04-17 11:12:00,
2013-04-17 06:32:00,40.0,28.0,-100.00,East,80,12.0,21.0,62,-99.99,,,-99.99,,2013-04-17 11:32:00,
2013-04-17 06:42:00,40.0,28.0,-100.00,East,80,12.0,21.0,62,-99.99,,,-99.99,,2013-04-17 11:42:00,
2013-04-17 06:52:00,40.0,28.0,-100.00,East,80,12.0,21.0,62,-99.99,,,-99.99,,2013-04-17 11:52:00,
2013-04-17 07:02:00,40.0,28.0,-100.00,East,80,12.0,21.0,62,-99.99,,,-99.99,,2013-04-17 12:02:00,
2013-04-17 07:12:00,40.0,28.0,-100.00,East,95,7.0,14.0,62,-99.99,,,-99.99,,2013-04-17 12:12:00,
2013-04-17 07:32:00,40.0,28.0,-100.00,East,95,7.0,14.0,62,-99.99,,,-99.99,,2013-04-17 12:32:00,
2013-04-17 07:42:00,40.0,28.0,-100.00,East,95,7.0,14.0,62,-99.99,,,-99.99,,2013-04-17 12:42:00,
2013-04-17 07:52:00,40.0,28.0,-100.00,East,95,7.0,14.0,62,-99.99,,,-99.99,,2013-04-17 12:52:00,
2013-04-17 08:02:00,40.0,28.0,-100.00,East,95,7.0,14.0,62,-99.99,,,-99.99,,2013-04-17 13:02:00,
2013-04-17 08:32:00,39.0,30.0,-100.00,NE,50,6.0,16.0,69,-99.99,,,-99.99,,2013-04-17 13:32:00,
2013-04-17 08:42:00,39.0,30.0,-100.00,NE,50,6.0,16.0,69,-99.99,,,-99.99,,2013-04-17 13:42:00,
2013-04-17 08:52:00,39.0,30.0,-100.00,NE,50,6.0,16.0,69,-99.99,,,-99.99,,2013-04-17 13:52:00,
2013-04-17 09:02:00,39.0,30.0,-100.00,NE,50,6.0,16.0,69,-99.99,,,-99.99,,2013-04-17 14:02:00,
2013-04-17 09:12:00,39.0,30.0,-100.00,NE,50,6.0,16.0,69,-99.99,,,-99.99,,2013-04-17 14:12:00,
2013-04-17 09:32:00,38.0,32.0,-100.00,East,95,6.0,22.0,79,-99.99,,,-99.99,,2013-04-17 14:32:00,
2013-04-17 09:43:00,38.0,32.0,-100.00,East,95,6.0,22.0,79,-99.99,,,-99.99,,2013-04-17 14:43:00,
2013-04-17 09:52:00,38.0,32.0,-100.00,East,95,6.0,22.0,79,-99.99,,,-99.99,,2013-04-17 14:52:00,
2013-04-17 10:02:00,38.0,32.0,-100.00,East,95,6.0,22.0,79,-99.99,,,-99.99,,2013-04-17 15:02:00,
2013-04-17 10:33:00,38.0,34.0,-100.00,ESE,115,5.0,14.0,85,-99.99,,,-99.99,,2013-04-17 15:33:00,
2013-04-17 10:43:00,38.0,34.0,-100.00,ESE,115,5.0,14.0,85,-99.99,,,-99.99,,2013-04-17 15:43:00,
2013-04-17 10:53:00,38.0,34.0,-100.00,ESE,115,5.0,14.0,85,-99.99,,,-99.99,,2013-04-17 15:53:00,
2013-04-17 11:03:00,38.0,34.0,-100.00,ESE,115,5.0,14.0,85,-99.99,,,-99.99,,2013-04-17 16:03:00,
2013-04-17 11:12:00,38.0,34.0,-100.00,ESE,115,5.0,14.0,85,-99.99,,,-99.99,,2013-04-17 16:12:00,
2013-04-17 11:32:00,38.0,34.0,-100.00,NE,45,4.0,12.0,85,-99.99,,,-99.99,,2013-04-17 16:32:00,
2013-04-17 11:42:00,38.0,34.0,-100.00,NE,45,4.0,12.0,85,-99.99,,,-99.99,,2013-04-17 16:42:00,
2013-04-17 11:52:00,38.0,34.0,-100.00,NE,45,4.0,12.0,85,-99.99,,,-99.99,,2013-04-17 16:52:00,
2013-04-17 12:02:00,38.0,34.0,-100.00,NE,45,4.0,12.0,85,-99.99,,,-99.99,,2013-04-17 17:02:00,
2013-04-17 12:12:00,38.0,34.0,-100.00,NE,45,4.0,12.0,85,-99.99,,,-99.99,,2013-04-17 17:12:00,
2013-04-17 12:33:00,38.0,35.0,-100.00,East,80,8.0,14.0,88,-99.99,,,-99.99,,2013-04-17 17:33:00,
2013-04-17 12:42:00,38.0,35.0,-100.00,East,80,8.0,14.0,88,-99.99,,,-99.99,,2013-04-17 17:42:00,
2013-04-17 12:52:00,38.0,35.0,-100.00,East,80,8.0,14.0,88,-99.99,,,-99.99,,2013-04-17 17:52:00,
2013-04-17 13:02:00,38.0,35.0,-100.00,East,80,8.0,14.0,88,-99.99,,,-99.99,,2013-04-17 18:02:00,
2013-04-17 13:33:00,38.0,36.0,-100.00,ENE,70,7.0,17.0,90,-99.99,,,-99.99,,2013-04-17 18:33:00,
2013-04-17 13:42:00,38.0,36.0,-100.00,ENE,70,7.0,17.0,90,-99.99,,,-99.99,,2013-04-17 18:42:00,
2013-04-17 13:52:00,38.0,36.0,-100.00,ENE,70,7.0,17.0,90,-99.99,,,-99.99,,2013-04-17 18:52:00,
2013-04-17 14:02:00,38.0,36.0,-100.00,ENE,70,7.0,17.0,90,-99.99,,,-99.99,,2013-04-17 19:02:00,
2013-04-17 14:12:00,38.0,36.0,-100.00,ENE,70,7.0,17.0,90,-99.99,,,-99.99,,2013-04-17 19:12:00,
2013-04-17 14:32:00,38.0,36.0,-100.00,East,80,7.0,17.0,90,-99.99,,,-99.99,,2013-04-17 19:32:00,
2013-04-17 14:42:00,38.0,36.0,-100.00,East,80,7.0,17.0,90,-99.99,,,-99.99,,2013-04-17 19:42:00,
2013-04-17 14:52:00,38.0,36.0,-100.00,East,80,7.0,17.0,90,-99.99,,,-99.99,,2013-04-17 19:52:00,
2013-04-17 15:02:00,38.0,36.0,-100.00,East,80,7.0,17.0,90,-99.99,,,-99.99,,2013-04-17 20:02:00,
2013-04-17 15:11:00,39.0,36.0,-100.00,East,85,17.0,34.0,87,-99.99,,,-99.99,,2013-04-17 20:11:00,
2013-04-17 15:12:00,38.0,36.0,-100.00,East,80,7.0,17.0,90,-99.99,,,-99.99,,2013-04-17 20:12:00,
2013-04-17 15:33:00,39.0,36.0,-100.00,East,85,17.0,34.0,87,-99.99,,,-99.99,,2013-04-17 20:33:00,
2013-04-17 15:42:00,39.0,36.0,-100.00,East,85,17.0,34.0,87,-99.99,,,-99.99,,2013-04-17 20:42:00,
2013-04-17 15:52:00,39.0,36.0,-100.00,East,85,17.0,34.0,87,-99.99,,,-99.99,,2013-04-17 20:52:00,
2013-04-17 16:02:00,39.0,36.0,-100.00,East,85,17.0,34.0,87,-99.99,,,-99.99,,2013-04-17 21:02:00,
2013-04-17 16:33:00,40.0,36.0,-100.00,ESE,105,11.0,19.0,86,-99.99,,,-99.99,,2013-04-17 21:33:00,
2013-04-17 16:43:00,40.0,36.0,-100.00,ESE,105,11.0,19.0,86,-99.99,,,-99.99,,2013-04-17 21:43:00,
2013-04-17 16:53:00,40.0,36.0,-100.00,ESE,105,11.0,19.0,86,-99.99,,,-99.99,,2013-04-17 21:53:00,
2013-04-17 17:02:00,40.0,36.0,-100.00,ESE,105,11.0,19.0,86,-99.99,,,-99.99,,2013-04-17 22:02:00,
2013-04-17 17:12:00,40.0,36.0,-100.00,ESE,105,11.0,19.0,86,-99.99,,,-99.99,,2013-04-17 22:12:00,
2013-04-17 17:33:00,40.0,36.0,-100.00,East,85,10.0,19.0,86,-99.99,,,-99.99,,2013-04-17 22:33:00,
2013-04-17 17:43:00,40.0,36.0,-100.00,East,85,10.0,19.0,86,-99.99,,,-99.99,,2013-04-17 22:43:00,
2013-04-17 17:53:00,40.0,36.0,-100.00,East,85,10.0,19.0,86,-99.99,,,-99.99,,2013-04-17 22:53:00,
2013-04-17 18:02:00,40.0,36.0,-100.00,East,85,10.0,19.0,86,-99.99,,,-99.99,,2013-04-17 23:02:00,
2013-04-17 18:12:00,40.0,36.0,-100.00,East,85,10.0,19.0,86,-99.99,,,-99.99,,2013-04-17 23:12:00,
2013-04-17 18:32:00,40.0,36.0,-100.00,East,80,9.0,20.0,87,-99.99,,,-99.99,,2013-04-17 23:32:00,
2013-04-17 18:42:00,40.0,36.0,-100.00,East,80,9.0,20.0,87,-99.99,,,-99.99,,2013-04-17 23:42:00,
2013-04-17 18:52:00,40.0,36.0,-100.00,East,80,9.0,20.0,87,-99.99,,,-99.99,,2013-04-17 23:52:00,
2013-04-17 19:02:00,40.0,36.0,-100.00,East,80,9.0,20.0,87,-99.99,,,-99.99,,2013-04-18 00:02:00,
2013-04-17 19:12:00,40.0,36.0,-100.00,East,80,9.0,20.0,87,-99.99,,,-99.99,,2013-04-18 00:12:00,
2013-04-17 19:32:00,40.0,38.0,-100.00,ENE,60,5.0,27.0,90,-99.99,,,-99.99,,2013-04-18 00:32:00,
2013-04-17 19:42:00,40.0,38.0,-100.00,ENE,60,5.0,27.0,90,-99.99,,,-99.99,,2013-04-18 00:42:00,
2013-04-17 19:52:00,40.0,38.0,-100.00,ENE,60,5.0,27.0,90,-99.99,,,-99.99,,2013-04-18 00:52:00,
2013-04-17 20:02:00,40.0,38.0,-100.00,ENE,60,5.0,27.0,90,-99.99,,,-99.99,,2013-04-18 01:02:00,
2013-04-17 20:12:00,40.0,38.0,-100.00,ENE,60,5.0,27.0,90,-99.99,,,-99.99,,2013-04-18 01:12:00,
2013-04-17 20:32:00,41.0,38.0,-100.00,East,90,7.0,18.0,90,-99.99,,,-99.99,,2013-04-18 01:32:00,
2013-04-17 20:42:00,41.0,38.0,-100.00,East,90,7.0,18.0,90,-99.99,,,-99.99,,2013-04-18 01:42:00,
2013-04-17 20:52:00,41.0,38.0,-100.00,East,90,7.0,18.0,90,-99.99,,,-99.99,,2013-04-18 01:52:00,
2013-04-17 21:02:00,41.0,38.0,-100.00,East,90,7.0,18.0,90,-99.99,,,-99.99,,2013-04-18 02:02:00,
2013-04-17 21:32:00,42.0,39.0,-100.00,ESE,110,6.0,14.0,90,-99.99,,,-99.99,,2013-04-18 02:32:00,
2013-04-17 21:42:00,42.0,39.0,-100.00,ESE,110,6.0,14.0,90,-99.99,,,-99.99,,2013-04-18 02:42:00,
2013-04-17 21:52:00,42.0,39.0,-100.00,ESE,110,6.0,14.0,90,-99.99,,,-99.99,,2013-04-18 02:52:00,
2013-04-17 22:02:00,42.0,39.0,-100.00,ESE,110,6.0,14.0,90,-99.99,,,-99.99,,2013-04-18 03:02:00,
2013-04-17 22:12:00,42.0,39.0,-100.00,ESE,110,6.0,14.0,90,-99.99,,,-99.99,,2013-04-18 03:12:00,
2013-04-17 22:33:00,42.0,39.0,-100.00,NE,40,2.0,10.0,91,-99.99,,,-99.99,,2013-04-18 03:33:00,
2013-04-17 22:43:00,42.0,39.0,-100.00,NE,40,2.0,10.0,91,-99.99,,,-99.99,,2013-04-18 03:43:00,
2013-04-17 22:53:00,42.0,39.0,-100.00,NE,40,2.0,10.0,91,-99.99,,,-99.99,,2013-04-18 03:53:00,
2013-04-17 23:03:00,42.0,39.0,-100.00,NE,40,2.0,10.0,91,-99.99,,,-99.99,,2013-04-18 04:03:00,
2013-04-17 23:13:00,42.0,39.0,-100.00,NE,40,2.0,10.0,91,-99.99,,,-99.99,,2013-04-18 04:13:00,
2013-04-17 23:43:00,42.0,39.0,-100.00,SE,125,0.0,9.0,91,-99.99,,,-99.99,,2013-04-18 04:43:00,
2013-04-17 23:53:00,42.0,39.0,-100.00,SE,125,0.0,9.0,91,-99.99,,,-99.99,,2013-04-18 04:53:00,